sensor_id;sensor_type;location;lat;lon;timestamp;temperature;humidity
802;DHT22;383;48.766;9.270;2023-03-23T00:00:22;13.50;73.00
802;DHT22;383;48.766;9.270;2023-03-23T00:02:49;13.40;73.60
802;DHT22;383;48.766;9.270;2023-03-23T00:05:15;13.40;74.00
802;DHT22;383;48.766;9.270;2023-03-23T00:07:43;13.30;73.60
802;DHT22;383;48.766;9.270;2023-03-23T00:10:10;13.20;74.00
802;DHT22;383;48.766;9.270;2023-03-23T00:12:37;13.20;74.50
802;DHT22;383;48.766;9.270;2023-03-23T00:15:09;13.30;74.40
802;DHT22;383;48.766;9.270;2023-03-23T00:17:38;13.30;74.50
802;DHT22;383;48.766;9.270;2023-03-23T00:20:07;13.40;74.60
802;DHT22;383;48.766;9.270;2023-03-23T00:22:35;13.40;75.00
802;DHT22;383;48.766;9.270;2023-03-23T00:25:03;13.30;75.20
802;DHT22;383;48.766;9.270;2023-03-23T00:27:31;13.30;75.40
802;DHT22;383;48.766;9.270;2023-03-23T00:29:58;13.40;75.00
802;DHT22;383;48.766;9.270;2023-03-23T00:32:26;13.40;75.40
802;DHT22;383;48.766;9.270;2023-03-23T00:34:54;13.40;75.20
802;DHT22;383;48.766;9.270;2023-03-23T00:37:21;13.40;75.40
802;DHT22;383;48.766;9.270;2023-03-23T00:39:48;13.40;75.60
802;DHT22;383;48.766;9.270;2023-03-23T00:42:17;13.50;74.50
802;DHT22;383;48.766;9.270;2023-03-23T00:44:44;13.40;72.40
802;DHT22;383;48.766;9.270;2023-03-23T00:47:11;13.40;68.60
802;DHT22;383;48.766;9.270;2023-03-23T00:49:39;13.50;67.50
802;DHT22;383;48.766;9.270;2023-03-23T00:52:06;13.60;66.00
802;DHT22;383;48.766;9.270;2023-03-23T00:54:33;13.70;65.10
802;DHT22;383;48.766;9.270;2023-03-23T00:57:01;13.80;64.70
802;DHT22;383;48.766;9.270;2023-03-23T00:59:28;13.90;64.90
802;DHT22;383;48.766;9.270;2023-03-23T01:01:55;14.00;64.30
802;DHT22;383;48.766;9.270;2023-03-23T01:04:22;14.10;63.70
802;DHT22;383;48.766;9.270;2023-03-23T01:06:50;14.20;63.80
802;DHT22;383;48.766;9.270;2023-03-23T01:09:18;14.30;62.70
802;DHT22;383;48.766;9.270;2023-03-23T01:11:47;14.40;62.30
802;DHT22;383;48.766;9.270;2023-03-23T01:14:16;14.50;61.90
802;DHT22;383;48.766;9.270;2023-03-23T01:16:43;14.50;62.60
802;DHT22;383;48.766;9.270;2023-03-23T01:19:10;14.50;61.90
802;DHT22;383;48.766;9.270;2023-03-23T01:21:37;14.50;63.00
802;DHT22;383;48.766;9.270;2023-03-23T01:24:06;14.50;65.80
802;DHT22;383;48.766;9.270;2023-03-23T01:26:35;14.50;64.90
802;DHT22;383;48.766;9.270;2023-03-23T01:29:01;14.50;66.40
802;DHT22;383;48.766;9.270;2023-03-23T01:31:28;14.50;67.00
802;DHT22;383;48.766;9.270;2023-03-23T01:33:55;14.40;68.20
802;DHT22;383;48.766;9.270;2023-03-23T01:36:23;14.40;68.40
802;DHT22;383;48.766;9.270;2023-03-23T01:38:52;14.30;68.30
802;DHT22;383;48.766;9.270;2023-03-23T01:41:21;14.30;67.90
802;DHT22;383;48.766;9.270;2023-03-23T01:43:59;14.20;66.60
802;DHT22;383;48.766;9.270;2023-03-23T01:46:28;14.30;64.70
802;DHT22;383;48.766;9.270;2023-03-23T01:48:57;14.30;63.70
802;DHT22;383;48.766;9.270;2023-03-23T01:51:26;14.40;62.10
802;DHT22;383;48.766;9.270;2023-03-23T01:53:56;14.50;63.30
802;DHT22;383;48.766;9.270;2023-03-23T01:56:32;14.50;65.00
802;DHT22;383;48.766;9.270;2023-03-23T01:59:03;14.40;66.80
802;DHT22;383;48.766;9.270;2023-03-23T02:01:30;14.30;67.60
802;DHT22;383;48.766;9.270;2023-03-23T02:04:02;14.20;68.70
802;DHT22;383;48.766;9.270;2023-03-23T02:06:29;14.20;69.60
802;DHT22;383;48.766;9.270;2023-03-23T02:08:56;14.20;69.90
802;DHT22;383;48.766;9.270;2023-03-23T02:11:23;14.20;69.60
802;DHT22;383;48.766;9.270;2023-03-23T02:13:51;14.30;69.20
802;DHT22;383;48.766;9.270;2023-03-23T02:16:27;14.30;69.10
802;DHT22;383;48.766;9.270;2023-03-23T02:19:07;14.30;69.50
802;DHT22;383;48.766;9.270;2023-03-23T02:24:55;14.30;68.40
802;DHT22;383;48.766;9.270;2023-03-23T02:27:57;14.30;69.30
802;DHT22;383;48.766;9.270;2023-03-23T02:30:47;14.10;69.50
802;DHT22;383;48.766;9.270;2023-03-23T02:33:36;14.00;70.00
802;DHT22;383;48.766;9.270;2023-03-23T02:36:10;14.00;70.40
802;DHT22;383;48.766;9.270;2023-03-23T02:38:43;14.00;70.40
802;DHT22;383;48.766;9.270;2023-03-23T02:41:18;14.00;70.30
802;DHT22;383;48.766;9.270;2023-03-23T02:43:47;14.00;70.90
802;DHT22;383;48.766;9.270;2023-03-23T02:46:16;13.90;70.80
802;DHT22;383;48.766;9.270;2023-03-23T02:48:45;14.00;70.10
802;DHT22;383;48.766;9.270;2023-03-23T02:51:15;13.90;70.10
802;DHT22;383;48.766;9.270;2023-03-23T02:53:43;13.90;70.90
802;DHT22;383;48.766;9.270;2023-03-23T02:56:12;13.90;70.30
802;DHT22;383;48.766;9.270;2023-03-23T02:58:40;13.80;70.70
802;DHT22;383;48.766;9.270;2023-03-23T03:04:03;13.80;71.50
802;DHT22;383;48.766;9.270;2023-03-23T03:06:33;13.80;72.00
802;DHT22;383;48.766;9.270;2023-03-23T03:09:04;13.80;72.10
802;DHT22;383;48.766;9.270;2023-03-23T03:11:34;13.70;72.80
802;DHT22;383;48.766;9.270;2023-03-23T03:14:04;13.70;72.60
802;DHT22;383;48.766;9.270;2023-03-23T03:16:34;13.80;72.50
802;DHT22;383;48.766;9.270;2023-03-23T03:19:08;13.80;72.80
802;DHT22;383;48.766;9.270;2023-03-23T03:21:40;13.80;72.80
802;DHT22;383;48.766;9.270;2023-03-23T03:24:08;13.70;70.80
802;DHT22;383;48.766;9.270;2023-03-23T03:26:38;13.80;69.50
802;DHT22;383;48.766;9.270;2023-03-23T03:29:06;13.80;68.20
802;DHT22;383;48.766;9.270;2023-03-23T03:31:37;13.90;69.10
802;DHT22;383;48.766;9.270;2023-03-23T03:34:06;13.90;69.30
802;DHT22;383;48.766;9.270;2023-03-23T03:36:34;13.90;68.80
802;DHT22;383;48.766;9.270;2023-03-23T03:39:04;13.90;70.00
802;DHT22;383;48.766;9.270;2023-03-23T03:41:33;13.90;69.60
802;DHT22;383;48.766;9.270;2023-03-23T03:44:00;13.90;68.20
802;DHT22;383;48.766;9.270;2023-03-23T03:46:26;14.00;66.60
802;DHT22;383;48.766;9.270;2023-03-23T03:48:55;14.10;67.10
802;DHT22;383;48.766;9.270;2023-03-23T03:51:23;14.20;67.10
802;DHT22;383;48.766;9.270;2023-03-23T03:53:50;14.20;67.50
802;DHT22;383;48.766;9.270;2023-03-23T03:56:17;14.10;68.00
802;DHT22;383;48.766;9.270;2023-03-23T03:58:45;14.10;68.60
802;DHT22;383;48.766;9.270;2023-03-23T04:01:14;14.20;68.80
802;DHT22;383;48.766;9.270;2023-03-23T04:03:41;14.10;69.20
802;DHT22;383;48.766;9.270;2023-03-23T04:06:09;14.10;68.90
802;DHT22;383;48.766;9.270;2023-03-23T04:08:39;14.10;69.50
802;DHT22;383;48.766;9.270;2023-03-23T04:11:07;14.20;69.20
802;DHT22;383;48.766;9.270;2023-03-23T04:13:34;14.10;69.70
802;DHT22;383;48.766;9.270;2023-03-23T04:16:01;14.10;70.10
802;DHT22;383;48.766;9.270;2023-03-23T04:18:27;14.00;70.50
802;DHT22;383;48.766;9.270;2023-03-23T04:20:54;14.00;70.80
802;DHT22;383;48.766;9.270;2023-03-23T04:23:25;14.00;71.50
802;DHT22;383;48.766;9.270;2023-03-23T04:25:53;14.00;71.20
802;DHT22;383;48.766;9.270;2023-03-23T04:28:23;14.00;71.50
802;DHT22;383;48.766;9.270;2023-03-23T04:30:50;14.00;71.90
802;DHT22;383;48.766;9.270;2023-03-23T04:33:18;14.00;72.30
802;DHT22;383;48.766;9.270;2023-03-23T04:35:45;14.00;72.00
802;DHT22;383;48.766;9.270;2023-03-23T04:38:13;14.00;71.90
802;DHT22;383;48.766;9.270;2023-03-23T04:40:42;14.00;71.70
802;DHT22;383;48.766;9.270;2023-03-23T04:43:11;14.00;72.40
802;DHT22;383;48.766;9.270;2023-03-23T04:45:38;14.00;72.30
802;DHT22;383;48.766;9.270;2023-03-23T04:48:07;14.00;72.60
802;DHT22;383;48.766;9.270;2023-03-23T04:50:34;14.00;72.90
802;DHT22;383;48.766;9.270;2023-03-23T04:53:02;14.00;73.00
802;DHT22;383;48.766;9.270;2023-03-23T04:55:30;14.00;73.30
802;DHT22;383;48.766;9.270;2023-03-23T04:57:57;14.00;73.00
802;DHT22;383;48.766;9.270;2023-03-23T05:00:27;14.00;72.90
802;DHT22;383;48.766;9.270;2023-03-23T05:02:53;13.90;73.20
802;DHT22;383;48.766;9.270;2023-03-23T05:05:21;13.90;73.40
802;DHT22;383;48.766;9.270;2023-03-23T05:07:50;13.80;74.10
802;DHT22;383;48.766;9.270;2023-03-23T05:10:17;13.90;73.60
802;DHT22;383;48.766;9.270;2023-03-23T05:12:44;13.90;72.50
802;DHT22;383;48.766;9.270;2023-03-23T05:15:13;13.80;73.40
802;DHT22;383;48.766;9.270;2023-03-23T05:17:41;13.70;74.50
802;DHT22;383;48.766;9.270;2023-03-23T05:20:11;13.70;74.40
802;DHT22;383;48.766;9.270;2023-03-23T05:22:40;13.70;74.40
802;DHT22;383;48.766;9.270;2023-03-23T05:25:08;13.80;74.50
802;DHT22;383;48.766;9.270;2023-03-23T05:27:36;13.90;74.10
802;DHT22;383;48.766;9.270;2023-03-23T05:30:03;13.90;74.10
802;DHT22;383;48.766;9.270;2023-03-23T05:32:31;13.90;74.60
802;DHT22;383;48.766;9.270;2023-03-23T05:35:00;13.90;74.20
802;DHT22;383;48.766;9.270;2023-03-23T05:37:28;13.80;74.90
802;DHT22;383;48.766;9.270;2023-03-23T05:39:57;13.90;74.80
802;DHT22;383;48.766;9.270;2023-03-23T05:42:31;13.90;74.40
802;DHT22;383;48.766;9.270;2023-03-23T05:44:57;13.90;75.00
802;DHT22;383;48.766;9.270;2023-03-23T05:47:26;13.90;75.00
802;DHT22;383;48.766;9.270;2023-03-23T05:49:52;13.90;74.20
802;DHT22;383;48.766;9.270;2023-03-23T05:52:20;13.90;74.50
802;DHT22;383;48.766;9.270;2023-03-23T05:54:49;13.90;74.40
802;DHT22;383;48.766;9.270;2023-03-23T05:57:15;13.90;73.60
802;DHT22;383;48.766;9.270;2023-03-23T05:59:43;14.00;73.60
802;DHT22;383;48.766;9.270;2023-03-23T06:02:10;14.10;72.80
802;DHT22;383;48.766;9.270;2023-03-23T06:04:39;14.10;73.00
802;DHT22;383;48.766;9.270;2023-03-23T06:07:06;14.10;73.30
802;DHT22;383;48.766;9.270;2023-03-23T06:09:34;14.20;72.90
802;DHT22;383;48.766;9.270;2023-03-23T06:12:01;14.30;73.00
802;DHT22;383;48.766;9.270;2023-03-23T06:14:28;14.30;72.60
802;DHT22;383;48.766;9.270;2023-03-23T06:16:54;14.30;71.90
802;DHT22;383;48.766;9.270;2023-03-23T06:19:21;14.40;71.90
802;DHT22;383;48.766;9.270;2023-03-23T06:21:48;14.40;71.50
802;DHT22;383;48.766;9.270;2023-03-23T06:24:15;14.50;71.20
802;DHT22;383;48.766;9.270;2023-03-23T06:26:43;14.50;71.10
802;DHT22;383;48.766;9.270;2023-03-23T06:29:10;14.60;70.70
802;DHT22;383;48.766;9.270;2023-03-23T06:31:38;14.70;70.50
802;DHT22;383;48.766;9.270;2023-03-23T06:34:05;14.70;70.70
802;DHT22;383;48.766;9.270;2023-03-23T06:36:32;14.80;70.50
802;DHT22;383;48.766;9.270;2023-03-23T06:38:59;14.80;70.40
802;DHT22;383;48.766;9.270;2023-03-23T06:41:26;14.70;70.40
802;DHT22;383;48.766;9.270;2023-03-23T06:43:55;14.80;69.90
802;DHT22;383;48.766;9.270;2023-03-23T06:46:21;14.80;70.10
802;DHT22;383;48.766;9.270;2023-03-23T06:48:48;14.90;69.20
802;DHT22;383;48.766;9.270;2023-03-23T06:51:15;14.90;68.60
802;DHT22;383;48.766;9.270;2023-03-23T06:53:42;14.90;68.20
802;DHT22;383;48.766;9.270;2023-03-23T06:56:09;15.00;67.80
802;DHT22;383;48.766;9.270;2023-03-23T06:58:37;15.00;68.20
802;DHT22;383;48.766;9.270;2023-03-23T07:01:05;15.00;68.60
802;DHT22;383;48.766;9.270;2023-03-23T07:03:33;15.10;68.60
802;DHT22;383;48.766;9.270;2023-03-23T07:06:00;15.30;68.60
802;DHT22;383;48.766;9.270;2023-03-23T07:08:27;15.50;68.20
802;DHT22;383;48.766;9.270;2023-03-23T07:10:55;15.70;67.10
802;DHT22;383;48.766;9.270;2023-03-23T07:13:22;15.90;67.10
802;DHT22;383;48.766;9.270;2023-03-23T07:15:49;16.00;67.10
802;DHT22;383;48.766;9.270;2023-03-23T07:18:17;16.00;66.80
802;DHT22;383;48.766;9.270;2023-03-23T07:20:47;16.10;66.40
802;DHT22;383;48.766;9.270;2023-03-23T07:23:14;16.20;65.90
802;DHT22;383;48.766;9.270;2023-03-23T07:25:41;16.10;65.40
802;DHT22;383;48.766;9.270;2023-03-23T07:28:07;16.20;64.20
802;DHT22;383;48.766;9.270;2023-03-23T07:30:34;16.20;64.70
802;DHT22;383;48.766;9.270;2023-03-23T07:33:04;16.20;65.60
802;DHT22;383;48.766;9.270;2023-03-23T07:35:33;16.20;65.10
802;DHT22;383;48.766;9.270;2023-03-23T07:37:59;16.20;64.90
802;DHT22;383;48.766;9.270;2023-03-23T07:40:28;16.20;64.30
802;DHT22;383;48.766;9.270;2023-03-23T07:42:58;16.20;63.90
802;DHT22;383;48.766;9.270;2023-03-23T07:45:25;16.30;63.90
802;DHT22;383;48.766;9.270;2023-03-23T07:47:53;16.30;63.70
802;DHT22;383;48.766;9.270;2023-03-23T07:50:20;16.30;66.60
802;DHT22;383;48.766;9.270;2023-03-23T07:52:51;16.40;65.40
802;DHT22;383;48.766;9.270;2023-03-23T07:55:18;16.40;65.20
802;DHT22;383;48.766;9.270;2023-03-23T07:57:45;16.50;64.20
802;DHT22;383;48.766;9.270;2023-03-23T08:00:14;16.60;63.40
802;DHT22;383;48.766;9.270;2023-03-23T08:02:44;16.80;61.30
802;DHT22;383;48.766;9.270;2023-03-23T08:05:11;16.90;62.30
802;DHT22;383;48.766;9.270;2023-03-23T08:07:39;17.10;61.80
802;DHT22;383;48.766;9.270;2023-03-23T08:10:09;17.30;62.20
802;DHT22;383;48.766;9.270;2023-03-23T08:12:37;17.50;61.90
802;DHT22;383;48.766;9.270;2023-03-23T08:15:05;17.50;60.50
802;DHT22;383;48.766;9.270;2023-03-23T08:17:32;17.60;60.00
802;DHT22;383;48.766;9.270;2023-03-23T08:19:59;17.60;59.00
802;DHT22;383;48.766;9.270;2023-03-23T08:22:26;17.70;59.00
802;DHT22;383;48.766;9.270;2023-03-23T08:24:54;17.60;59.00
802;DHT22;383;48.766;9.270;2023-03-23T08:27:22;17.70;59.60
802;DHT22;383;48.766;9.270;2023-03-23T08:29:49;17.80;59.70
802;DHT22;383;48.766;9.270;2023-03-23T08:32:16;17.80;59.70
802;DHT22;383;48.766;9.270;2023-03-23T08:34:42;17.90;59.50
802;DHT22;383;48.766;9.270;2023-03-23T08:37:09;18.00;59.00
802;DHT22;383;48.766;9.270;2023-03-23T08:39:37;18.20;58.20
802;DHT22;383;48.766;9.270;2023-03-23T08:42:04;18.30;57.80
802;DHT22;383;48.766;9.270;2023-03-23T08:44:32;18.40;58.60
802;DHT22;383;48.766;9.270;2023-03-23T08:46:59;18.40;58.30
802;DHT22;383;48.766;9.270;2023-03-23T08:49:28;18.40;58.30
802;DHT22;383;48.766;9.270;2023-03-23T08:51:58;18.30;58.60
802;DHT22;383;48.766;9.270;2023-03-23T08:54:25;18.30;59.30
802;DHT22;383;48.766;9.270;2023-03-23T08:56:52;18.10;59.80
802;DHT22;383;48.766;9.270;2023-03-23T08:59:18;17.90;60.60
802;DHT22;383;48.766;9.270;2023-03-23T09:01:46;17.70;60.90
802;DHT22;383;48.766;9.270;2023-03-23T09:04:13;17.70;61.80
802;DHT22;383;48.766;9.270;2023-03-23T09:06:40;17.80;61.50
802;DHT22;383;48.766;9.270;2023-03-23T09:09:08;17.80;62.10
802;DHT22;383;48.766;9.270;2023-03-23T09:11:35;17.90;61.10
802;DHT22;383;48.766;9.270;2023-03-23T09:14:03;18.10;60.50
802;DHT22;383;48.766;9.270;2023-03-23T09:16:30;18.10;60.60
802;DHT22;383;48.766;9.270;2023-03-23T09:18:58;18.30;60.00
802;DHT22;383;48.766;9.270;2023-03-23T09:21:25;18.40;60.40
802;DHT22;383;48.766;9.270;2023-03-23T09:23:52;18.70;60.10
802;DHT22;383;48.766;9.270;2023-03-23T09:26:23;18.80;59.10
802;DHT22;383;48.766;9.270;2023-03-23T09:28:50;18.90;58.50
802;DHT22;383;48.766;9.270;2023-03-23T09:31:17;18.90;58.70
802;DHT22;383;48.766;9.270;2023-03-23T09:33:46;19.10;58.70
802;DHT22;383;48.766;9.270;2023-03-23T09:36:18;19.20;57.80
802;DHT22;383;48.766;9.270;2023-03-23T09:38:47;19.40;58.70
802;DHT22;383;48.766;9.270;2023-03-23T09:41:27;19.30;57.40
802;DHT22;383;48.766;9.270;2023-03-23T09:44:03;19.10;58.10
802;DHT22;383;48.766;9.270;2023-03-23T09:46:48;19.20;58.10
802;DHT22;383;48.766;9.270;2023-03-23T09:49:19;19.10;58.20
802;DHT22;383;48.766;9.270;2023-03-23T09:51:51;19.10;58.60
802;DHT22;383;48.766;9.270;2023-03-23T09:54:24;19.10;58.50
802;DHT22;383;48.766;9.270;2023-03-23T09:56:53;19.00;57.20
802;DHT22;383;48.766;9.270;2023-03-23T09:59:24;18.70;59.10
802;DHT22;383;48.766;9.270;2023-03-23T10:01:55;18.60;59.50
802;DHT22;383;48.766;9.270;2023-03-23T10:04:30;18.60;60.00
802;DHT22;383;48.766;9.270;2023-03-23T10:07:08;18.50;60.10
802;DHT22;383;48.766;9.270;2023-03-23T10:09:36;18.70;59.60
802;DHT22;383;48.766;9.270;2023-03-23T10:12:09;18.80;59.60
802;DHT22;383;48.766;9.270;2023-03-23T10:14:52;18.80;59.00
802;DHT22;383;48.766;9.270;2023-03-23T10:17:27;18.80;59.50
802;DHT22;383;48.766;9.270;2023-03-23T10:20:01;18.70;59.70
802;DHT22;383;48.766;9.270;2023-03-23T10:22:39;18.70;60.00
802;DHT22;383;48.766;9.270;2023-03-23T10:25:15;18.80;60.10
802;DHT22;383;48.766;9.270;2023-03-23T10:27:45;18.90;59.50
802;DHT22;383;48.766;9.270;2023-03-23T10:30:19;19.10;59.00
802;DHT22;383;48.766;9.270;2023-03-23T10:32:50;19.40;59.50
802;DHT22;383;48.766;9.270;2023-03-23T10:35:20;19.50;58.20
802;DHT22;383;48.766;9.270;2023-03-23T10:37:56;19.40;58.60
802;DHT22;383;48.766;9.270;2023-03-23T10:40:26;19.40;58.00
802;DHT22;383;48.766;9.270;2023-03-23T10:42:54;19.50;58.80
802;DHT22;383;48.766;9.270;2023-03-23T10:45:24;19.60;58.10
802;DHT22;383;48.766;9.270;2023-03-23T10:47:54;19.80;58.50
802;DHT22;383;48.766;9.270;2023-03-23T10:50:24;19.90;56.90
802;DHT22;383;48.766;9.270;2023-03-23T10:52:56;19.90;57.80
802;DHT22;383;48.766;9.270;2023-03-23T10:55:25;19.70;57.70
802;DHT22;383;48.766;9.270;2023-03-23T10:58:02;19.70;57.60
802;DHT22;383;48.766;9.270;2023-03-23T11:00:30;19.70;58.00
802;DHT22;383;48.766;9.270;2023-03-23T11:03:00;19.90;57.80
802;DHT22;383;48.766;9.270;2023-03-23T11:05:33;19.70;57.70
802;DHT22;383;48.766;9.270;2023-03-23T11:08:02;19.80;57.00
802;DHT22;383;48.766;9.270;2023-03-23T11:10:36;19.90;58.30
802;DHT22;383;48.766;9.270;2023-03-23T11:13:03;19.90;57.70
802;DHT22;383;48.766;9.270;2023-03-23T11:15:36;19.90;57.80
802;DHT22;383;48.766;9.270;2023-03-23T11:18:05;20.10;57.60
802;DHT22;383;48.766;9.270;2023-03-23T11:20:35;20.10;56.90
802;DHT22;383;48.766;9.270;2023-03-23T11:23:10;19.90;56.60
802;DHT22;383;48.766;9.270;2023-03-23T11:25:52;19.90;56.60
802;DHT22;383;48.766;9.270;2023-03-23T11:28:20;19.80;58.00
802;DHT22;383;48.766;9.270;2023-03-23T11:30:47;19.80;57.80
802;DHT22;383;48.766;9.270;2023-03-23T11:33:14;19.80;58.20
802;DHT22;383;48.766;9.270;2023-03-23T11:35:44;19.70;59.10
802;DHT22;383;48.766;9.270;2023-03-23T11:38:17;19.80;58.50
802;DHT22;383;48.766;9.270;2023-03-23T11:40:49;19.70;58.70
802;DHT22;383;48.766;9.270;2023-03-23T11:43:20;19.70;59.50
802;DHT22;383;48.766;9.270;2023-03-23T11:45:50;19.80;59.80
802;DHT22;383;48.766;9.270;2023-03-23T11:48:24;19.60;62.30
802;DHT22;383;48.766;9.270;2023-03-23T11:50:55;19.70;62.70
802;DHT22;383;48.766;9.270;2023-03-23T11:53:33;19.90;62.20
802;DHT22;383;48.766;9.270;2023-03-23T11:56:09;20.10;59.10
802;DHT22;383;48.766;9.270;2023-03-23T11:58:37;20.00;59.10
802;DHT22;383;48.766;9.270;2023-03-23T12:01:11;20.20;58.30
802;DHT22;383;48.766;9.270;2023-03-23T12:03:56;20.10;58.50
802;DHT22;383;48.766;9.270;2023-03-23T12:06:34;20.10;57.80
802;DHT22;383;48.766;9.270;2023-03-23T12:09:16;20.20;57.60
802;DHT22;383;48.766;9.270;2023-03-23T12:11:52;20.30;57.70
802;DHT22;383;48.766;9.270;2023-03-23T12:14:27;20.20;58.00
802;DHT22;383;48.766;9.270;2023-03-23T12:17:06;20.30;57.70
802;DHT22;383;48.766;9.270;2023-03-23T12:19:42;20.00;59.60
802;DHT22;383;48.766;9.270;2023-03-23T12:22:23;20.10;59.00
802;DHT22;383;48.766;9.270;2023-03-23T12:25:04;20.10;58.20
802;DHT22;383;48.766;9.270;2023-03-23T12:27:38;20.10;58.10
802;DHT22;383;48.766;9.270;2023-03-23T12:30:20;20.20;58.10
802;DHT22;383;48.766;9.270;2023-03-23T12:33:04;20.20;57.40
802;DHT22;383;48.766;9.270;2023-03-23T12:35:43;20.30;57.60
802;DHT22;383;48.766;9.270;2023-03-23T12:38:39;20.30;57.00
802;DHT22;383;48.766;9.270;2023-03-23T12:41:16;20.40;56.50
802;DHT22;383;48.766;9.270;2023-03-23T12:43:50;20.50;56.90
802;DHT22;383;48.766;9.270;2023-03-23T12:46:37;20.60;55.70
802;DHT22;383;48.766;9.270;2023-03-23T12:49:09;20.40;55.00
802;DHT22;383;48.766;9.270;2023-03-23T12:51:42;20.20;55.50
802;DHT22;383;48.766;9.270;2023-03-23T12:54:15;20.40;55.40
802;DHT22;383;48.766;9.270;2023-03-23T12:56:52;20.50;54.50
802;DHT22;383;48.766;9.270;2023-03-23T12:59:25;20.60;55.20
802;DHT22;383;48.766;9.270;2023-03-23T13:01:57;20.80;55.00
802;DHT22;383;48.766;9.270;2023-03-23T13:04:28;21.00;53.50
802;DHT22;383;48.766;9.270;2023-03-23T13:06:58;21.00;53.10
802;DHT22;383;48.766;9.270;2023-03-23T13:09:29;21.00;53.60
802;DHT22;383;48.766;9.270;2023-03-23T13:12:02;21.10;53.40
802;DHT22;383;48.766;9.270;2023-03-23T13:14:38;21.20;53.50
802;DHT22;383;48.766;9.270;2023-03-23T13:17:14;21.20;53.90
802;DHT22;383;48.766;9.270;2023-03-23T13:19:59;21.10;53.30
802;DHT22;383;48.766;9.270;2023-03-23T13:22:32;21.20;52.90
802;DHT22;383;48.766;9.270;2023-03-23T13:25:07;21.20;53.40
802;DHT22;383;48.766;9.270;2023-03-23T13:27:36;21.30;53.40
802;DHT22;383;48.766;9.270;2023-03-23T13:30:03;21.20;53.30
802;DHT22;383;48.766;9.270;2023-03-23T13:32:35;21.30;53.00
802;DHT22;383;48.766;9.270;2023-03-23T13:35:03;21.40;53.00
802;DHT22;383;48.766;9.270;2023-03-23T13:37:31;21.50;52.90
802;DHT22;383;48.766;9.270;2023-03-23T13:40:11;21.60;53.00
802;DHT22;383;48.766;9.270;2023-03-23T13:42:50;21.50;52.50
802;DHT22;383;48.766;9.270;2023-03-23T13:45:22;21.50;52.40
802;DHT22;383;48.766;9.270;2023-03-23T13:47:50;21.60;52.10
802;DHT22;383;48.766;9.270;2023-03-23T13:50:30;21.40;51.50
802;DHT22;383;48.766;9.270;2023-03-23T13:52:59;21.30;52.30
802;DHT22;383;48.766;9.270;2023-03-23T13:55:39;21.20;52.30
802;DHT22;383;48.766;9.270;2023-03-23T13:58:21;21.10;52.10
802;DHT22;383;48.766;9.270;2023-03-23T14:01:00;21.00;52.50
802;DHT22;383;48.766;9.270;2023-03-23T14:03:36;20.90;53.00
802;DHT22;383;48.766;9.270;2023-03-23T14:06:05;20.80;53.40
802;DHT22;383;48.766;9.270;2023-03-23T14:08:52;20.60;54.30
802;DHT22;383;48.766;9.270;2023-03-23T14:11:22;20.50;54.00
802;DHT22;383;48.766;9.270;2023-03-23T14:14:06;20.40;54.00
802;DHT22;383;48.766;9.270;2023-03-23T14:16:37;20.50;54.10
802;DHT22;383;48.766;9.270;2023-03-23T14:19:15;20.40;53.40
802;DHT22;383;48.766;9.270;2023-03-23T14:21:50;20.40;54.00
802;DHT22;383;48.766;9.270;2023-03-23T14:24:20;20.30;53.90
802;DHT22;383;48.766;9.270;2023-03-23T14:26:49;20.10;54.60
802;DHT22;383;48.766;9.270;2023-03-23T14:29:20;20.10;54.90
802;DHT22;383;48.766;9.270;2023-03-23T14:31:54;20.20;54.40
802;DHT22;383;48.766;9.270;2023-03-23T14:34:24;20.20;54.40
802;DHT22;383;48.766;9.270;2023-03-23T14:36:52;20.10;52.90
802;DHT22;383;48.766;9.270;2023-03-23T14:39:23;20.10;53.40
802;DHT22;383;48.766;9.270;2023-03-23T14:41:51;20.00;53.10
802;DHT22;383;48.766;9.270;2023-03-23T14:44:22;19.90;53.00
802;DHT22;383;48.766;9.270;2023-03-23T14:46:50;19.90;53.40
802;DHT22;383;48.766;9.270;2023-03-23T14:49:20;19.90;52.80
802;DHT22;383;48.766;9.270;2023-03-23T14:51:49;20.00;53.10
802;DHT22;383;48.766;9.270;2023-03-23T14:54:22;19.90;53.00
802;DHT22;383;48.766;9.270;2023-03-23T14:56:50;19.90;53.00
802;DHT22;383;48.766;9.270;2023-03-23T14:59:17;19.90;53.60
802;DHT22;383;48.766;9.270;2023-03-23T15:01:46;19.70;53.10
802;DHT22;383;48.766;9.270;2023-03-23T15:04:16;19.70;53.60
802;DHT22;383;48.766;9.270;2023-03-23T15:06:48;19.70;53.60
802;DHT22;383;48.766;9.270;2023-03-23T15:09:20;19.70;53.60
802;DHT22;383;48.766;9.270;2023-03-23T15:11:53;19.60;53.60
802;DHT22;383;48.766;9.270;2023-03-23T15:14:22;19.60;53.80
802;DHT22;383;48.766;9.270;2023-03-23T15:16:53;19.70;53.30
802;DHT22;383;48.766;9.270;2023-03-23T15:19:24;19.60;53.00
802;DHT22;383;48.766;9.270;2023-03-23T15:21:53;19.50;52.10
802;DHT22;383;48.766;9.270;2023-03-23T15:24:25;19.40;53.30
802;DHT22;383;48.766;9.270;2023-03-23T15:26:53;19.40;53.60
802;DHT22;383;48.766;9.270;2023-03-23T15:29:28;19.30;52.80
802;DHT22;383;48.766;9.270;2023-03-23T15:31:56;19.40;53.30
802;DHT22;383;48.766;9.270;2023-03-23T15:34:30;19.50;52.80
802;DHT22;383;48.766;9.270;2023-03-23T15:37:00;19.60;52.60
802;DHT22;383;48.766;9.270;2023-03-23T15:39:28;19.60;52.40
802;DHT22;383;48.766;9.270;2023-03-23T15:41:56;19.60;52.50
802;DHT22;383;48.766;9.270;2023-03-23T15:44:26;19.50;52.40
802;DHT22;383;48.766;9.270;2023-03-23T15:47:10;19.40;52.80
802;DHT22;383;48.766;9.270;2023-03-23T15:49:37;19.40;53.10
802;DHT22;383;48.766;9.270;2023-03-23T15:52:04;19.20;54.40
802;DHT22;383;48.766;9.270;2023-03-23T15:54:31;19.20;54.00
802;DHT22;383;48.766;9.270;2023-03-23T15:56:58;19.10;54.10
802;DHT22;383;48.766;9.270;2023-03-23T15:59:25;19.10;54.50
802;DHT22;383;48.766;9.270;2023-03-23T16:01:51;19.10;54.30
802;DHT22;383;48.766;9.270;2023-03-23T16:04:20;19.00;54.60
802;DHT22;383;48.766;9.270;2023-03-23T16:06:47;18.90;54.70
802;DHT22;383;48.766;9.270;2023-03-23T16:09:17;18.90;54.70
802;DHT22;383;48.766;9.270;2023-03-23T16:11:45;18.80;54.50
802;DHT22;383;48.766;9.270;2023-03-23T16:14:12;18.70;54.90
802;DHT22;383;48.766;9.270;2023-03-23T16:16:41;18.60;55.00
802;DHT22;383;48.766;9.270;2023-03-23T16:19:10;18.60;55.00
802;DHT22;383;48.766;9.270;2023-03-23T16:21:40;18.60;55.40
802;DHT22;383;48.766;9.270;2023-03-23T16:24:07;18.60;55.10
802;DHT22;383;48.766;9.270;2023-03-23T16:26:35;18.60;55.50
802;DHT22;383;48.766;9.270;2023-03-23T16:29:02;18.60;55.20
802;DHT22;383;48.766;9.270;2023-03-23T16:31:34;18.50;54.90
802;DHT22;383;48.766;9.270;2023-03-23T16:34:01;18.40;55.70
802;DHT22;383;48.766;9.270;2023-03-23T16:36:28;18.40;55.70
802;DHT22;383;48.766;9.270;2023-03-23T16:38:56;18.30;55.40
802;DHT22;383;48.766;9.270;2023-03-23T16:41:23;18.20;55.90
802;DHT22;383;48.766;9.270;2023-03-23T16:43:49;18.20;56.40
802;DHT22;383;48.766;9.270;2023-03-23T16:46:16;18.10;56.50
802;DHT22;383;48.766;9.270;2023-03-23T16:48:43;18.10;56.50
802;DHT22;383;48.766;9.270;2023-03-23T16:51:10;18.20;56.40
802;DHT22;383;48.766;9.270;2023-03-23T16:53:38;18.10;57.10
802;DHT22;383;48.766;9.270;2023-03-23T16:56:07;18.10;57.40
802;DHT22;383;48.766;9.270;2023-03-23T16:58:34;18.00;57.20